Terminal Aerodrome Forecast
Issued by NWS Chicago, IL

Home | Current Version | Previous Version | Graphics & Text | Print | Product List | Glossary On
Versions: 1 2 3 4 5 6 7 8 9 10 11 12 13 14 15 16 17 18 19 20 21 22 23 24 25 26
614
FTUS43 KLOT 240300 AAA
TAFRFD
TAF AMD
KRFD 240300Z 2403/2424 VRB06KT 6SM -TSRA BKN040CB
     FM240500 18006KT P6SM SCT030 BKN250
     FM240900 18006KT P6SM VCTS BKN025CB
     FM241200 21010G16KT P6SM SCT040
     FM242000 24012G19KT P6SM VCTS BKN040CB=

USA.gov is the U.S. government's official web portal to all federal, state and local government web resources and services.